createdAt,value
2022-09-10T00:00:23.537Z,16.60
2022-09-10T00:01:23.576Z,16.55
2022-09-10T00:02:23.669Z,16.55
2022-09-10T00:03:23.750Z,16.54
2022-09-10T00:04:23.826Z,16.52
2022-09-10T00:05:23.934Z,16.52
2022-09-10T00:06:23.991Z,16.54
2022-09-10T00:07:24.070Z,16.51
2022-09-10T00:08:24.174Z,16.51
2022-09-10T00:09:24.273Z,16.48
2022-09-10T00:10:24.344Z,16.45
2022-09-10T00:11:24.387Z,16.42
2022-09-10T00:12:24.467Z,16.40
2022-09-10T00:13:24.541Z,16.37
2022-09-10T00:14:24.648Z,16.40
2022-09-10T00:15:24.747Z,16.37
2022-09-10T00:16:24.850Z,16.34
2022-09-10T00:17:24.904Z,16.36
2022-09-10T00:18:25.002Z,16.37
2022-09-10T00:19:25.087Z,16.37
2022-09-10T00:20:25.183Z,16.40
2022-09-10T00:21:25.255Z,16.41
2022-09-10T00:22:25.333Z,16.41
2022-09-10T00:23:25.440Z,16.40
2022-09-10T00:24:25.521Z,16.41
2022-09-10T00:25:25.656Z,16.42
2022-09-10T00:26:25.682Z,16.45
2022-09-10T00:27:25.789Z,16.45
2022-09-10T00:28:25.865Z,16.47
2022-09-10T00:29:25.973Z,16.47
2022-09-10T00:30:26.084Z,16.48
2022-09-10T00:31:26.186Z,16.54
2022-09-10T00:32:26.240Z,16.57
2022-09-10T00:33:26.308Z,16.60
2022-09-10T00:34:26.381Z,16.60
2022-09-10T00:35:26.461Z,16.63
2022-09-10T00:36:26.522Z,16.63
2022-09-10T00:37:26.632Z,16.63
2022-09-10T00:38:26.710Z,16.63
2022-09-10T00:39:26.814Z,16.63
2022-09-10T00:40:26.911Z,16.63
2022-09-10T00:41:26.984Z,16.62
2022-09-10T00:42:27.063Z,16.63
2022-09-10T00:43:27.170Z,16.62
2022-09-10T00:44:27.250Z,16.65
2022-09-10T00:45:27.378Z,16.66
2022-09-10T00:46:27.398Z,16.80
2022-09-10T00:47:27.510Z,16.80
2022-09-10T00:48:27.595Z,16.82
2022-09-10T00:49:27.680Z,16.90
2022-09-10T00:50:27.778Z,16.99
2022-09-10T00:51:27.856Z,17.00
2022-09-10T00:52:27.934Z,16.99
2022-09-10T00:53:28.035Z,16.98
2022-09-10T00:54:28.107Z,16.99
2022-09-10T00:55:28.215Z,16.98
2022-09-10T00:56:28.257Z,17.02
2022-09-10T00:57:28.344Z,17.03
2022-09-10T00:58:28.425Z,17.02
2022-09-10T00:59:28.493Z,17.00
2022-09-10T01:00:28.589Z,16.98
2022-09-10T01:01:28.668Z,16.95
2022-09-10T01:02:28.743Z,16.91
2022-09-10T01:03:28.851Z,16.90
2022-09-10T01:04:28.921Z,16.85
2022-09-10T01:05:29.036Z,16.85
2022-09-10T01:06:29.077Z,16.84
2022-09-10T01:07:29.198Z,16.85
2022-09-10T01:08:29.237Z,16.82
2022-09-10T01:09:29.346Z,16.85
2022-09-10T01:10:29.543Z,16.85
2022-09-10T01:11:29.525Z,16.88
2022-09-10T01:12:32.140Z,16.87
2022-09-10T01:13:29.706Z,16.88
2022-09-10T01:14:29.779Z,16.90
2022-09-10T01:15:29.905Z,16.92
2022-09-10T01:16:29.987Z,16.96
2022-09-10T01:17:30.049Z,16.95
2022-09-10T01:18:30.126Z,16.92
2022-09-10T01:19:30.221Z,16.91
2022-09-10T01:20:30.313Z,16.92
2022-09-10T01:21:30.387Z,16.95
2022-09-10T01:22:30.464Z,16.92
2022-09-10T01:23:30.568Z,16.96
2022-09-10T01:24:30.646Z,16.98
2022-09-10T01:25:30.774Z,16.96
2022-09-10T01:26:30.816Z,16.96
2022-09-10T01:27:30.920Z,16.98
2022-09-10T01:28:31.028Z,16.99
2022-09-10T01:29:31.081Z,16.99
2022-09-10T01:30:31.252Z,16.98
2022-09-10T01:31:31.375Z,16.98
2022-09-10T01:32:31.280Z,16.99
2022-09-10T01:33:31.386Z,17.00
2022-09-10T01:34:31.463Z,17.00
2022-09-10T01:35:31.579Z,16.99
2022-09-10T01:36:31.648Z,16.98
2022-09-10T01:37:31.752Z,16.96
2022-09-10T01:38:31.986Z,16.95
2022-09-10T01:39:31.992Z,16.98
2022-09-10T01:40:31.998Z,17.00
2022-09-10T01:41:32.065Z,17.00
2022-09-10T01:42:32.143Z,17.00
2022-09-10T01:43:32.254Z,17.00
2022-09-10T01:44:32.324Z,16.99
2022-09-10T01:45:32.471Z,16.99
2022-09-10T01:46:32.465Z,16.99
2022-09-10T01:47:32.572Z,16.98
2022-09-10T01:48:32.648Z,16.99
2022-09-10T01:49:32.753Z,16.98
2022-09-10T01:50:32.842Z,16.98
2022-09-10T01:51:32.917Z,16.99
2022-09-10T01:52:32.991Z,16.99
2022-09-10T01:53:33.086Z,16.99
2022-09-10T01:54:33.164Z,16.99
2022-09-10T01:55:33.294Z,16.99
2022-09-10T01:56:33.335Z,17.02
2022-09-10T01:57:33.453Z,17.00
2022-09-10T01:58:33.527Z,17.00
2022-09-10T01:59:33.625Z,16.96
2022-09-10T02:00:33.721Z,16.95
2022-09-10T02:01:33.793Z,16.95
2022-09-10T02:02:33.871Z,16.92
2022-09-10T02:03:33.979Z,16.91
2022-09-10T02:04:34.071Z,16.91
2022-09-10T02:05:34.165Z,16.91
2022-09-10T02:06:34.216Z,16.92
2022-09-10T02:07:34.321Z,16.92
2022-09-10T02:08:34.442Z,16.91
2022-09-10T02:09:34.503Z,16.91
2022-09-10T02:10:34.698Z,16.92
2022-09-10T02:11:34.680Z,16.91
2022-09-10T02:12:34.758Z,16.92
2022-09-10T02:13:34.864Z,16.92
2022-09-10T02:14:34.944Z,16.90
2022-09-10T02:15:35.074Z,16.90
2022-09-10T02:16:35.161Z,16.91
2022-09-10T02:17:35.229Z,16.91
2022-09-10T02:18:35.401Z,16.90
2022-09-10T02:19:35.399Z,16.90
2022-09-10T02:20:35.478Z,16.87
2022-09-10T02:21:35.551Z,16.87
2022-09-10T02:22:35.634Z,16.85
2022-09-10T02:23:35.702Z,16.87
2022-09-10T02:24:35.785Z,16.87
2022-09-10T02:25:35.886Z,16.85
2022-09-10T02:26:35.924Z,16.85
2022-09-10T02:27:36.034Z,16.85
2022-09-10T02:28:36.113Z,16.85
2022-09-10T02:29:36.194Z,16.87
2022-09-10T02:30:36.298Z,16.87
2022-09-10T02:31:36.416Z,16.88
2022-09-10T02:32:36.450Z,16.88
2022-09-10T02:33:36.537Z,16.91
2022-09-10T02:34:36.612Z,16.91
2022-09-10T02:35:36.734Z,16.91
2022-09-10T02:36:36.770Z,16.92
2022-09-10T02:37:36.859Z,16.91
2022-09-10T02:38:37.002Z,16.91
2022-09-10T02:39:37.057Z,16.90
2022-09-10T02:40:37.139Z,16.91
2022-09-10T02:41:37.223Z,16.88
2022-09-10T02:42:37.300Z,16.88
2022-09-10T02:43:37.410Z,16.90
2022-09-10T02:44:37.489Z,16.90
2022-09-10T02:45:37.671Z,16.87
2022-09-10T02:46:37.678Z,16.88
2022-09-10T02:47:37.748Z,16.88
2022-09-10T02:48:37.833Z,16.88
2022-09-10T02:49:37.899Z,16.87
2022-09-10T02:50:37.992Z,16.87
2022-09-10T02:51:38.059Z,16.84
2022-09-10T02:52:38.139Z,16.84
2022-09-10T02:53:38.248Z,16.84
2022-09-10T02:54:38.332Z,16.82
2022-09-10T02:55:38.450Z,16.82
2022-09-10T02:56:38.479Z,16.84
2022-09-10T02:57:38.577Z,16.85
2022-09-10T02:58:38.761Z,16.84
2022-09-10T02:59:38.753Z,16.84
2022-09-10T03:00:38.951Z,16.82
2022-09-10T03:01:38.980Z,16.82
2022-09-10T03:02:38.994Z,16.82
2022-09-10T03:03:39.113Z,16.82
2022-09-10T03:04:39.180Z,16.84
2022-09-10T03:05:39.308Z,16.88
2022-09-10T03:06:39.354Z,16.91
2022-09-10T03:07:39.441Z,16.92
2022-09-10T03:08:39.604Z,16.91
2022-09-10T03:09:39.615Z,16.96
2022-09-10T03:10:39.716Z,16.98
2022-09-10T03:11:39.783Z,16.95
2022-09-10T03:12:39.861Z,16.92
2022-09-10T03:13:39.968Z,16.90
2022-09-10T03:14:40.051Z,16.90
2022-09-10T03:15:40.143Z,16.91
2022-09-10T03:16:40.253Z,16.90
2022-09-10T03:17:40.264Z,16.87
2022-09-10T03:18:40.345Z,16.87
2022-09-10T03:19:40.414Z,16.85
2022-09-10T03:20:40.512Z,16.85
2022-09-10T03:21:40.584Z,16.84
2022-09-10T03:22:40.660Z,16.84
2022-09-10T03:23:40.752Z,16.81
2022-09-10T03:24:40.821Z,16.77
2022-09-10T03:25:40.941Z,16.77
2022-09-10T03:26:40.980Z,16.77
2022-09-10T03:27:41.073Z,16.75
2022-09-10T03:28:41.151Z,16.75
2022-09-10T03:29:41.261Z,16.69
2022-09-10T03:30:41.364Z,16.66
2022-09-10T03:31:41.496Z,16.62
2022-09-10T03:32:41.512Z,16.55
2022-09-10T03:33:41.622Z,16.55
2022-09-10T03:34:41.706Z,16.48
2022-09-10T03:35:41.804Z,16.48
2022-09-10T03:36:41.912Z,16.48
2022-09-10T03:37:41.919Z,16.48
2022-09-10T03:38:42.005Z,16.50
2022-09-10T03:39:42.114Z,16.51
2022-09-10T03:40:42.197Z,16.52
2022-09-10T03:41:42.265Z,16.54
2022-09-10T03:42:42.343Z,16.54
2022-09-10T03:43:42.447Z,16.54
2022-09-10T03:44:42.530Z,16.54
2022-09-10T03:45:42.645Z,16.52
2022-09-10T03:46:42.667Z,16.51
2022-09-10T03:47:42.760Z,16.50
2022-09-10T03:48:42.822Z,16.48
2022-09-10T03:49:42.925Z,16.45
2022-09-10T03:50:43.019Z,16.41
2022-09-10T03:51:43.092Z,16.40
2022-09-10T03:52:43.178Z,16.37
2022-09-10T03:53:43.287Z,16.34
2022-09-10T03:54:43.372Z,16.33
2022-09-10T03:55:43.485Z,16.30
2022-09-10T03:56:43.525Z,16.23
2022-09-10T03:57:43.597Z,16.18
2022-09-10T03:58:43.676Z,16.16
2022-09-10T03:59:43.770Z,16.14
2022-09-10T04:00:43.957Z,16.16
2022-09-10T04:01:43.931Z,16.14
2022-09-10T04:02:44.003Z,16.13
2022-09-10T04:03:44.112Z,16.11
2022-09-10T04:04:44.192Z,16.10
2022-09-10T04:05:45.861Z,16.11
2022-09-10T04:06:44.348Z,16.11
2022-09-10T04:07:44.455Z,16.11
2022-09-10T04:08:44.533Z,16.11
2022-09-10T04:09:44.614Z,16.10
2022-09-10T04:10:44.694Z,16.10
2022-09-10T04:11:44.812Z,16.11
2022-09-10T04:12:44.849Z,16.10
2022-09-10T04:13:44.944Z,16.10
2022-09-10T04:14:45.025Z,16.08
2022-09-10T04:15:45.093Z,16.08
2022-09-10T04:16:45.262Z,16.10
2022-09-10T04:17:45.275Z,16.11
2022-09-10T04:18:45.350Z,16.11
2022-09-10T04:19:45.458Z,16.11
2022-09-10T04:20:45.539Z,16.13
2022-09-10T04:21:45.623Z,16.08
2022-09-10T04:22:45.658Z,16.07
2022-09-10T04:23:45.763Z,16.06
2022-09-10T04:24:45.840Z,16.06
2022-09-10T04:25:45.936Z,16.07
2022-09-10T04:26:46.027Z,16.07
2022-09-10T04:27:46.103Z,16.07
2022-09-10T04:28:46.176Z,16.08
2022-09-10T04:29:46.285Z,16.07
2022-09-10T04:30:46.361Z,16.06
2022-09-10T04:31:46.497Z,16.07
2022-09-10T04:32:46.521Z,16.07
2022-09-10T04:33:46.631Z,16.03
2022-09-10T04:34:46.721Z,15.95
2022-09-10T04:35:46.782Z,15.93
2022-09-10T04:36:46.891Z,15.93
2022-09-10T04:37:46.930Z,15.92
2022-09-10T04:38:47.007Z,15.91
2022-09-10T04:39:47.138Z,15.91
2022-09-10T04:40:47.179Z,15.92
2022-09-10T04:41:47.272Z,15.93
2022-09-10T04:42:47.337Z,15.93
2022-09-10T04:43:47.405Z,15.96
2022-09-10T04:44:47.502Z,15.96
2022-09-10T04:45:47.592Z,15.99
2022-09-10T04:46:47.684Z,16.04
2022-09-10T04:47:47.731Z,16.06
2022-09-10T04:48:47.800Z,16.06
2022-09-10T04:49:47.873Z,16.04
2022-09-10T04:51:14.373Z,16.07
2022-09-10T04:51:48.050Z,16.11
2022-09-10T04:52:48.113Z,16.10
2022-09-10T04:53:48.194Z,16.11
2022-09-10T04:54:48.265Z,16.13
2022-09-10T04:55:48.337Z,16.14
2022-09-10T04:56:48.441Z,16.16
2022-09-10T04:57:48.497Z,16.16
2022-09-10T04:58:48.604Z,16.14
2022-09-10T04:59:48.679Z,16.13
2022-09-10T05:00:48.838Z,16.14
2022-09-10T05:01:48.904Z,16.14
2022-09-10T05:02:48.959Z,16.14
2022-09-10T05:03:49.035Z,16.14
2022-09-10T05:04:49.138Z,16.16
2022-09-10T05:05:49.217Z,16.14
2022-09-10T05:06:49.333Z,16.14
2022-09-10T05:07:49.367Z,16.14
2022-09-10T05:08:49.469Z,16.16
2022-09-10T05:09:49.549Z,16.18
2022-09-10T05:10:49.656Z,16.17
2022-09-10T05:11:49.766Z,16.18
2022-09-10T05:12:49.831Z,16.17
2022-09-10T05:13:49.911Z,16.17
2022-09-10T05:14:49.983Z,16.14
2022-09-10T05:15:50.059Z,16.14
2022-09-10T05:16:50.219Z,16.10
2022-09-10T05:17:50.230Z,16.03
2022-09-10T05:18:50.338Z,16.01
2022-09-10T05:19:50.406Z,16.01
2022-09-10T05:20:50.483Z,16.01
2022-09-10T05:21:50.587Z,16.03
2022-09-10T05:22:50.672Z,15.99
2022-09-10T05:23:50.749Z,16.01
2022-09-10T05:24:50.837Z,15.95
2022-09-10T05:25:50.909Z,15.92
2022-09-10T05:26:51.013Z,15.89
2022-09-10T05:27:51.056Z,15.89
2022-09-10T05:28:51.126Z,15.93
2022-09-10T05:29:51.205Z,15.96
2022-09-10T05:30:51.970Z,15.98
2022-09-10T05:31:51.366Z,15.99
2022-09-10T05:32:51.423Z,16.01
2022-09-10T05:33:51.499Z,16.01
2022-09-10T05:34:51.593Z,15.92
2022-09-10T05:35:51.915Z,15.92
2022-09-10T05:36:51.761Z,15.91
2022-09-10T05:37:51.828Z,15.89
2022-09-10T05:38:51.913Z,15.91
2022-09-10T05:39:52.056Z,15.95
2022-09-10T05:40:52.089Z,15.95
2022-09-10T05:41:52.181Z,15.96
2022-09-10T05:42:52.258Z,15.95
2022-09-10T05:43:52.324Z,15.92
2022-09-10T05:44:52.415Z,15.93
2022-09-10T05:45:52.550Z,15.93
2022-09-10T05:46:52.591Z,15.93
2022-09-10T05:47:52.629Z,15.92
2022-09-10T05:48:52.700Z,15.95
2022-09-10T05:49:52.778Z,15.96
2022-09-10T05:50:52.850Z,16.01
2022-09-10T05:51:52.949Z,16.07
2022-09-10T05:52:53.015Z,16.10
2022-09-10T05:53:53.087Z,16.10
2022-09-10T05:54:53.213Z,16.14
2022-09-10T05:55:53.259Z,16.18
2022-09-10T05:56:53.366Z,16.23
2022-09-10T05:57:53.399Z,16.25
2022-09-10T05:58:53.487Z,16.27
2022-09-10T05:59:53.561Z,16.29
2022-09-10T06:00:53.672Z,16.34
2022-09-10T06:01:54.085Z,16.41
2022-09-10T06:02:53.919Z,16.47
2022-09-10T06:03:53.912Z,16.54
2022-09-10T06:04:54.010Z,16.62
2022-09-10T06:05:54.078Z,16.65
2022-09-10T06:06:54.213Z,16.75
2022-09-10T06:07:54.246Z,16.80
2022-09-10T06:08:54.342Z,16.92
2022-09-10T06:09:54.414Z,16.99
2022-09-10T06:10:54.515Z,17.06
2022-09-10T06:11:54.639Z,17.14
2022-09-10T06:12:54.685Z,17.12
2022-09-10T06:13:54.758Z,17.20
2022-09-10T06:14:54.854Z,17.28
2022-09-10T06:15:54.932Z,17.39
2022-09-10T06:16:55.045Z,17.53
2022-09-10T06:17:55.101Z,17.63
2022-09-10T06:18:55.198Z,17.55
2022-09-10T06:19:55.277Z,17.53
2022-09-10T06:20:55.374Z,17.60
2022-09-10T06:21:55.472Z,17.71
2022-09-10T06:22:55.533Z,17.79
2022-09-10T06:23:55.610Z,17.86
2022-09-10T06:24:55.705Z,17.89
2022-09-10T06:25:55.779Z,17.91
2022-09-10T06:26:55.901Z,17.92
2022-09-10T06:27:55.943Z,18.01
2022-09-10T06:28:56.039Z,18.10
2022-09-10T06:29:56.114Z,18.13
2022-09-10T06:30:56.250Z,17.99
2022-09-10T06:31:56.314Z,18.05
2022-09-10T06:32:56.372Z,18.13
2022-09-10T06:33:56.443Z,18.20
2022-09-10T06:34:56.544Z,18.31
2022-09-10T06:35:56.620Z,18.39
2022-09-10T06:36:56.732Z,18.49
2022-09-10T06:37:56.771Z,18.51
2022-09-10T06:38:56.872Z,18.56
2022-09-10T06:39:56.973Z,18.59
2022-09-10T06:40:57.016Z,18.65
2022-09-10T06:41:57.110Z,18.66
2022-09-10T06:42:57.179Z,18.69
2022-09-10T06:43:57.247Z,18.72
2022-09-10T06:44:57.347Z,18.76
2022-09-10T06:45:57.440Z,18.84
2022-09-10T06:47:39.021Z,18.96
2022-09-10T06:48:37.619Z,19.06
2022-09-10T06:48:57.696Z,19.17
2022-09-10T06:49:57.726Z,19.39
2022-09-10T06:50:57.823Z,19.50
2022-09-10T06:51:57.910Z,19.65
2022-09-10T06:52:57.977Z,19.70
2022-09-10T06:53:58.049Z,19.75
2022-09-10T06:54:58.135Z,19.87
2022-09-10T06:55:58.208Z,19.98
2022-09-10T06:56:58.327Z,20.05
2022-09-10T06:57:58.386Z,20.02
2022-09-10T06:59:02.121Z,19.92
2022-09-10T06:59:58.546Z,19.90
2022-09-10T07:00:58.741Z,19.82
2022-09-10T07:01:58.753Z,19.72
2022-09-10T07:02:58.781Z,19.71
2022-09-10T07:03:58.867Z,19.65
2022-09-10T07:04:58.937Z,19.67
2022-09-10T07:05:58.996Z,19.57
2022-09-10T07:06:59.090Z,19.55
2022-09-10T07:07:59.130Z,19.61
2022-09-10T07:08:59.215Z,19.62
2022-09-10T07:09:59.268Z,19.53
2022-09-10T07:10:59.353Z,19.50
2022-09-10T07:11:59.450Z,19.49
2022-09-10T07:12:59.502Z,19.47
2022-09-10T07:13:59.577Z,19.47
2022-09-10T07:14:59.686Z,19.49
2022-09-10T07:15:59.834Z,19.50
2022-09-10T07:16:59.883Z,19.50
2022-09-10T07:17:59.923Z,19.50
2022-09-10T07:19:00.003Z,19.46
2022-09-10T07:20:00.078Z,19.40
2022-09-10T07:21:00.160Z,19.34
2022-09-10T07:22:00.258Z,19.25
2022-09-10T07:23:00.306Z,19.21
2022-09-10T07:24:00.374Z,19.23
2022-09-10T07:25:00.457Z,19.23
2022-09-10T07:26:00.534Z,19.21
2022-09-10T07:27:00.630Z,19.16
2022-09-10T07:28:00.670Z,19.16
2022-09-10T07:29:00.743Z,19.17
2022-09-10T07:30:00.813Z,19.16
2022-09-10T07:31:00.948Z,19.20
2022-09-10T07:32:01.025Z,19.17
2022-09-10T07:33:01.086Z,19.20
2022-09-10T07:34:01.137Z,19.24
2022-09-10T07:35:01.209Z,19.27
2022-09-10T07:36:01.281Z,19.30
2022-09-10T07:37:01.392Z,19.30
2022-09-10T07:38:01.431Z,19.32
2022-09-10T07:39:01.855Z,19.35
2022-09-10T07:40:01.699Z,19.42
2022-09-10T07:41:01.708Z,19.47
2022-09-10T07:42:01.789Z,19.52
2022-09-10T07:43:01.857Z,19.61
2022-09-10T07:44:01.939Z,19.68
2022-09-10T07:45:02.042Z,19.90
2022-09-10T07:46:04.242Z,20.07
2022-09-10T07:47:02.200Z,20.42
2022-09-10T07:48:02.260Z,20.51
2022-09-10T07:49:02.359Z,20.51
2022-09-10T07:50:02.429Z,20.56
2022-09-10T07:51:02.531Z,20.61
2022-09-10T07:52:02.625Z,20.88
2022-09-10T07:53:02.672Z,21.49
2022-09-10T07:54:02.746Z,22.29
2022-09-10T07:55:02.877Z,23.22
2022-09-10T07:56:02.920Z,23.92
2022-09-10T07:57:03.048Z,24.75
2022-09-10T07:58:03.087Z,24.77
2022-09-10T07:59:03.162Z,25.08
2022-09-10T08:00:03.235Z,25.34
2022-09-10T08:01:03.392Z,25.82
2022-09-10T08:02:03.564Z,26.57
2022-09-10T08:03:03.508Z,26.90
2022-09-10T08:04:05.239Z,27.30
2022-09-10T08:05:03.671Z,27.80
2022-09-10T08:06:03.731Z,27.93
2022-09-10T08:07:03.846Z,28.14
2022-09-10T08:08:03.883Z,28.17
2022-09-10T08:09:03.979Z,27.66
2022-09-10T08:10:04.054Z,27.42
2022-09-10T08:11:07.400Z,27.46
2022-09-10T08:12:04.257Z,27.65
2022-09-10T08:13:04.323Z,27.65
2022-09-10T08:14:04.399Z,27.63
2022-09-10T08:15:04.499Z,27.33
2022-09-10T08:16:04.653Z,27.12
2022-09-10T08:17:04.686Z,27.02
2022-09-10T08:18:04.721Z,26.53
2022-09-10T08:19:04.825Z,25.69
2022-09-10T08:20:04.898Z,25.34
2022-09-10T08:21:04.993Z,25.09
2022-09-10T08:22:05.089Z,24.83
2022-09-10T08:23:05.154Z,24.55
2022-09-10T08:24:05.211Z,24.37
2022-09-10T08:25:05.320Z,24.08
2022-09-10T08:26:05.395Z,23.87
2022-09-10T08:27:05.659Z,23.69
2022-09-10T08:28:05.534Z,23.56
2022-09-10T08:29:05.629Z,23.38
2022-09-10T08:30:05.714Z,23.19
2022-09-10T08:31:05.863Z,22.99
2022-09-10T08:32:05.875Z,22.76
2022-09-10T08:33:05.946Z,22.61
2022-09-10T08:34:06.018Z,22.49
2022-09-10T08:35:06.105Z,22.38
2022-09-10T08:36:06.175Z,22.21
2022-09-10T08:37:06.282Z,22.04
2022-09-10T08:38:06.322Z,21.90
2022-09-10T08:39:08.481Z,21.74
2022-09-10T08:40:06.547Z,21.63
2022-09-10T08:41:06.568Z,21.52
2022-09-10T08:42:06.674Z,21.49
2022-09-10T08:43:06.740Z,21.46
2022-09-10T08:44:06.811Z,21.49
2022-09-10T08:45:06.914Z,21.51
2022-09-10T08:46:07.033Z,21.55
2022-09-10T08:47:07.077Z,21.56
2022-09-10T08:48:07.146Z,21.55
2022-09-10T08:49:07.235Z,21.51
2022-09-10T08:50:07.307Z,21.49
2022-09-10T08:51:07.397Z,21.45
2022-09-10T08:52:07.495Z,21.38
2022-09-10T08:53:07.566Z,21.38
2022-09-10T08:54:07.666Z,21.33
2022-09-10T08:55:07.736Z,21.31
2022-09-10T08:56:07.835Z,21.30
2022-09-10T08:57:07.922Z,21.30
2022-09-10T08:58:08.007Z,21.30
2022-09-10T08:59:08.088Z,21.31
2022-09-10T09:00:08.174Z,21.30
2022-09-10T09:01:08.326Z,21.24
2022-09-10T09:02:10.012Z,21.05
2022-09-10T09:03:08.460Z,20.87
2022-09-10T09:04:08.519Z,20.75
2022-09-10T09:05:08.594Z,20.68
2022-09-10T09:06:08.702Z,20.57
2022-09-10T09:07:08.782Z,20.48
2022-09-10T09:08:08.883Z,20.42
2022-09-10T09:09:13.461Z,20.40
2022-09-10T09:10:09.013Z,20.37
2022-09-10T09:11:09.091Z,20.31
2022-09-10T09:12:09.203Z,20.17
2022-09-10T09:13:09.297Z,20.13
2022-09-10T09:14:09.375Z,20.12
2022-09-10T09:15:09.410Z,20.02
2022-09-10T09:16:09.556Z,19.97
2022-09-10T09:17:09.563Z,19.95
2022-09-10T09:18:09.650Z,19.87
2022-09-10T09:19:09.688Z,19.86
2022-09-10T09:20:09.801Z,19.80
2022-09-10T09:21:09.882Z,19.83
2022-09-10T09:22:09.967Z,19.86
2022-09-10T09:23:10.064Z,19.82
2022-09-10T09:24:13.627Z,19.83
2022-09-10T09:25:10.199Z,19.86
2022-09-10T09:26:10.309Z,19.92
2022-09-10T09:27:10.369Z,19.97
2022-09-10T09:28:10.458Z,19.98
2022-09-10T09:29:10.503Z,20.01
2022-09-10T09:30:10.570Z,20.05
2022-09-10T09:31:10.659Z,20.04
2022-09-10T09:32:10.707Z,20.00
2022-09-10T09:33:10.805Z,20.02
2022-09-10T09:34:10.871Z,20.02
2022-09-10T09:35:10.942Z,20.07
2022-09-10T09:36:11.043Z,20.08
2022-09-10T09:37:11.113Z,20.16
2022-09-10T09:38:11.248Z,20.20
2022-09-10T09:39:11.281Z,20.26
2022-09-10T09:40:11.540Z,20.30
2022-09-10T09:41:11.444Z,20.27
2022-09-10T09:42:11.539Z,20.30
2022-09-10T09:43:11.638Z,20.37
2022-09-10T09:44:11.710Z,20.46
2022-09-10T09:45:11.783Z,20.53
2022-09-10T09:46:11.935Z,20.60
2022-09-10T09:47:11.958Z,20.53
2022-09-10T09:48:12.082Z,20.56
2022-09-10T09:49:12.117Z,20.61
2022-09-10T09:50:12.205Z,20.61
2022-09-10T09:51:12.269Z,20.66
2022-09-10T09:52:12.370Z,20.72
2022-09-10T09:53:12.468Z,20.75
2022-09-10T09:54:46.522Z,20.81
2022-09-10T09:55:15.427Z,20.82
2022-09-10T09:56:12.727Z,20.81
2022-09-10T09:57:12.794Z,20.82
2022-09-10T09:58:12.924Z,20.88
2022-09-10T09:59:15.039Z,20.85
2022-09-10T10:00:13.043Z,20.82
2022-09-10T10:01:13.214Z,20.85
2022-09-10T10:02:13.271Z,20.91
2022-09-10T10:03:13.319Z,20.94
2022-09-10T10:04:13.375Z,20.98
2022-09-10T10:05:13.446Z,21.03
2022-09-10T10:06:13.543Z,21.03
2022-09-10T10:07:13.612Z,21.08
2022-09-10T10:08:13.737Z,21.06
2022-09-10T10:09:13.774Z,21.05
2022-09-10T10:10:13.859Z,21.03
2022-09-10T10:11:13.938Z,21.01
2022-09-10T10:12:14.045Z,20.97
2022-09-10T10:13:14.137Z,20.94
2022-09-10T10:14:14.208Z,20.88
2022-09-10T10:15:14.281Z,20.85
2022-09-10T10:16:14.417Z,20.81
2022-09-10T10:17:14.454Z,20.79
2022-09-10T10:18:14.539Z,20.81
2022-09-10T10:19:14.577Z,20.76
2022-09-10T10:20:14.663Z,20.75
2022-09-10T10:21:14.735Z,20.73
2022-09-10T10:22:14.851Z,20.72
2022-09-10T10:23:14.943Z,20.69
2022-09-10T10:24:15.008Z,20.63
2022-09-10T10:25:15.084Z,20.63
2022-09-10T10:26:15.164Z,20.63
2022-09-10T10:27:15.248Z,20.63
2022-09-10T10:28:15.330Z,20.63
2022-09-10T10:29:15.371Z,20.60
2022-09-10T10:30:15.441Z,20.56
2022-09-10T10:31:15.590Z,20.54
2022-09-10T10:32:15.598Z,20.51
2022-09-10T10:33:15.701Z,20.51
2022-09-10T10:34:15.788Z,20.51
2022-09-10T10:35:15.845Z,20.53
2022-09-10T10:36:15.946Z,20.54
2022-09-10T10:37:16.014Z,20.57
2022-09-10T10:38:16.110Z,20.60
2022-09-10T10:39:16.169Z,20.63
2022-09-10T10:40:16.335Z,20.71
2022-09-10T10:41:16.335Z,20.78
2022-09-10T10:42:16.428Z,20.85
2022-09-10T10:43:16.520Z,20.94
2022-09-10T10:44:16.587Z,20.97
2022-09-10T10:45:16.671Z,21.03
2022-09-10T10:46:16.792Z,21.08
2022-09-10T10:47:16.817Z,21.08
2022-09-10T10:48:16.931Z,21.11
2022-09-10T10:49:17.001Z,21.11
2022-09-10T10:50:17.087Z,21.12
2022-09-10T10:51:17.158Z,21.13
2022-09-10T10:52:17.256Z,21.16
2022-09-10T10:53:17.343Z,21.16
2022-09-10T10:54:17.411Z,21.16
2022-09-10T10:55:17.484Z,21.13
2022-09-10T10:56:17.580Z,21.12
2022-09-10T10:57:17.662Z,21.12
2022-09-10T10:58:17.763Z,21.13
2022-09-10T10:59:17.799Z,21.11
2022-09-10T11:00:17.895Z,21.11
2022-09-10T11:01:17.999Z,21.13
2022-09-10T11:02:18.081Z,21.18
2022-09-10T11:03:18.148Z,21.21
2022-09-10T11:04:18.216Z,21.21
2022-09-10T11:05:18.294Z,21.19
2022-09-10T11:06:18.393Z,21.21
2022-09-10T11:07:18.468Z,21.19
2022-09-10T11:08:18.575Z,21.21
2022-09-10T11:09:18.646Z,21.21
2022-09-10T11:10:18.746Z,21.22
2022-09-10T11:11:18.824Z,21.19
2022-09-10T11:12:18.910Z,21.19
2022-09-10T11:13:18.995Z,21.19
2022-09-10T11:14:19.061Z,21.19
2022-09-10T11:15:19.132Z,21.22
2022-09-10T11:16:19.217Z,21.16
2022-09-10T11:17:19.289Z,21.15
2022-09-10T11:18:19.416Z,21.18
2022-09-10T11:19:19.450Z,21.24
2022-09-10T11:20:35.031Z,21.21
2022-09-10T11:21:19.641Z,21.22
2022-09-10T11:22:19.705Z,21.24
2022-09-10T11:23:20.091Z,21.19
2022-09-10T11:24:19.857Z,21.24
2022-09-10T11:25:19.957Z,21.27
2022-09-10T11:26:20.027Z,21.33
2022-09-10T11:27:20.114Z,21.30
2022-09-10T11:28:20.200Z,21.36
2022-09-10T11:29:20.277Z,21.42
2022-09-10T11:30:20.344Z,21.43
2022-09-10T11:31:20.491Z,21.46
2022-09-10T11:32:20.517Z,21.48
2022-09-10T11:33:20.634Z,21.52
2022-09-10T11:34:20.702Z,21.58
2022-09-10T11:35:20.789Z,21.68
2022-09-10T11:36:20.860Z,21.75
2022-09-10T11:37:20.954Z,21.85
2022-09-10T11:38:21.038Z,21.86
2022-09-10T11:39:21.126Z,21.94
2022-09-10T11:40:21.198Z,21.98
2022-09-10T11:41:21.296Z,22.02
2022-09-10T11:42:21.368Z,21.93
2022-09-10T11:43:21.469Z,21.91
2022-09-10T11:44:21.532Z,21.85
2022-09-10T11:45:21.644Z,21.81
2022-09-10T11:46:21.743Z,21.70
2022-09-10T11:47:21.794Z,21.66
2022-09-10T11:48:21.881Z,21.66
2022-09-10T11:49:21.959Z,21.63
2022-09-10T11:50:22.029Z,21.67
2022-09-10T11:51:22.129Z,21.66
2022-09-10T11:52:22.198Z,21.67
2022-09-10T11:53:22.312Z,21.73
2022-09-10T11:54:22.384Z,21.74
2022-09-10T11:55:22.475Z,21.75
2022-09-10T11:56:22.545Z,21.79
2022-09-10T11:57:22.633Z,21.75
2022-09-10T11:58:22.717Z,21.71
2022-09-10T11:59:22.786Z,21.70
2022-09-10T12:00:22.854Z,21.64
2022-09-10T12:01:22.932Z,21.64
2022-09-10T12:02:23.026Z,21.64
2022-09-10T12:03:23.130Z,21.52
2022-09-10T12:04:23.135Z,21.49
2022-09-10T12:05:23.213Z,21.40
2022-09-10T12:06:23.302Z,21.31
2022-09-10T12:07:23.365Z,21.28
2022-09-10T12:08:23.460Z,21.22
2022-09-10T12:09:23.526Z,21.16
2022-09-10T12:10:23.604Z,21.15
2022-09-10T12:11:23.701Z,21.16
2022-09-10T12:12:23.777Z,21.13
2022-09-10T12:13:23.891Z,21.11
2022-09-10T12:14:23.926Z,21.06
2022-09-10T12:15:24.010Z,21.01
2022-09-10T12:16:24.074Z,21.00
2022-09-10T12:17:24.146Z,20.97
2022-09-10T12:18:24.231Z,20.97
2022-09-10T12:19:24.283Z,20.98
2022-09-10T12:20:24.358Z,20.98
2022-09-10T12:21:24.430Z,21.01
2022-09-10T12:22:24.479Z,21.00
2022-09-10T12:23:24.625Z,21.03
2022-09-10T12:24:24.657Z,21.03
2022-09-10T12:25:24.752Z,21.05
2022-09-10T12:26:24.832Z,21.09
2022-09-10T12:27:24.929Z,21.09
2022-09-10T12:28:25.017Z,21.09
2022-09-10T12:29:25.095Z,21.13
2022-09-10T12:30:25.165Z,21.16
2022-09-10T12:31:25.299Z,21.21
2022-09-10T12:32:25.342Z,21.19
2022-09-10T12:33:25.461Z,21.15
2022-09-10T12:34:25.497Z,21.16
2022-09-10T12:35:25.595Z,21.16
2022-09-10T12:36:25.673Z,21.19
2022-09-10T12:37:25.743Z,21.24
2022-09-10T12:38:25.818Z,21.30
2022-09-10T12:39:25.892Z,21.36
2022-09-10T12:40:25.950Z,21.42
2022-09-10T12:41:26.050Z,21.45
2022-09-10T12:42:26.122Z,21.49
2022-09-10T12:43:26.241Z,21.56
2022-09-10T12:44:26.302Z,21.59
2022-09-10T12:45:26.419Z,21.68
2022-09-10T12:46:26.524Z,21.75
2022-09-10T12:47:26.560Z,21.81
2022-09-10T12:48:27.215Z,21.90
2022-09-10T12:49:26.724Z,21.93
2022-09-10T12:50:26.796Z,21.96
2022-09-10T12:51:26.892Z,22.04
2022-09-10T12:52:26.971Z,22.05
2022-09-10T12:53:27.089Z,22.05